Time;durP1;ratioP1;P1;durP2;ratioP2;P2;SDS_P1;SDS_P2;PMS_P1;PMS_P2;Temp;Humidity;BMP_temperature;BMP_pressure;BME280_temperature;BME280_humidity;BME280_pressure;Samples;Min_cycle;Max_cycle;Signal;HPM_P1;HPM_P2
2022/08/06 00:00:46;;;;;;;9.55;8.65;;;;;;;24.00;52.00;98238.06;5093860;28;20106;-73
2022/08/06 00:03:12;;;;;;;9.38;8.40;;;;;;;23.89;51.96;98246.34;5091237;28;20345;-73
2022/08/06 00:05:37;;;;;;;10.27;8.18;;;;;;;23.78;52.75;98241.50;5091498;28;20019;-73
2022/08/06 00:08:03;;;;;;;12.60;9.15;;;;;;;23.67;52.73;98253.81;5109021;28;20031;-74
2022/08/06 00:10:28;;;;;;;10.13;9.10;;;;;;;23.57;53.43;98263.75;5109756;28;20016;-74
2022/08/06 00:12:54;;;;;;;9.32;8.35;;;;;;;23.48;53.93;98266.88;5109562;28;20030;-74
2022/08/06 00:15:19;;;;;;;9.65;8.65;;;;;;;23.36;53.38;98265.19;5109059;28;20024;-73
2022/08/06 00:17:45;;;;;;;10.50;8.90;;;;;;;23.29;53.47;98271.50;5111099;27;20027;-74
2022/08/06 00:20:12;;;;;;;10.98;8.80;;;;;;;23.24;53.66;98273.88;5108078;28;20031;-74
2022/08/06 00:22:38;;;;;;;12.02;9.75;;;;;;;23.18;54.02;98271.41;5109912;28;20023;-73
2022/08/06 00:25:04;;;;;;;11.85;9.48;;;;;;;23.11;54.36;98276.13;5109547;28;20039;-73
2022/08/06 00:27:30;;;;;;;13.27;8.95;;;;;;;23.02;54.55;98291.22;5110235;28;20020;-73
2022/08/06 00:29:56;;;;;;;13.23;9.32;;;;;;;22.96;54.24;98280.78;5109796;28;20023;-74
2022/08/06 00:32:21;;;;;;;14.57;9.20;;;;;;;22.90;54.90;98283.09;5109728;28;20030;-74
2022/08/06 00:34:46;;;;;;;10.60;9.50;;;;;;;22.85;54.93;98289.03;5107852;28;20024;-74
2022/08/06 00:37:12;;;;;;;12.38;9.70;;;;;;;22.78;55.13;98292.56;5109380;28;20048;-74
2022/08/06 00:39:37;;;;;;;14.43;10.05;;;;;;;22.74;55.36;98292.53;5091235;28;20038;-74
2022/08/06 00:42:03;;;;;;;11.02;8.35;;;;;;;22.72;55.65;98305.28;5089436;28;20572;-74
2022/08/06 00:44:29;;;;;;;11.85;8.57;;;;;;;22.69;55.22;98306.88;5109323;28;20031;-74
2022/08/06 00:46:54;;;;;;;12.90;8.82;;;;;;;22.68;55.45;98296.03;5109266;28;20027;-74
2022/08/06 00:49:20;;;;;;;13.23;9.05;;;;;;;22.65;55.34;98306.00;5108581;28;20017;-74
2022/08/06 00:51:45;;;;;;;10.57;8.23;;;;;;;22.64;55.60;98303.59;5109275;28;20050;-74
2022/08/06 00:54:11;;;;;;;10.63;8.50;;;;;;;22.63;55.79;98311.19;5109113;28;20055;-73
2022/08/06 00:56:36;;;;;;;12.20;8.55;;;;;;;22.60;55.64;98309.16;5109317;28;20023;-74
2022/08/06 00:59:03;;;;;;;17.13;8.50;;;;;;;22.59;55.79;98313.94;5108905;28;20020;-74
2022/08/06 01:01:28;;;;;;;8.75;7.75;;;;;;;22.58;55.53;98308.72;5109609;28;20023;-74
2022/08/06 01:03:54;;;;;;;7.90;7.10;;;;;;;22.56;55.80;98313.88;5109440;28;20031;-74
2022/08/06 01:06:21;;;;;;;10.68;7.85;;;;;;;22.55;55.73;98326.25;5108851;28;20047;-74
2022/08/06 01:08:46;;;;;;;9.75;7.25;;;;;;;22.54;55.49;98333.03;5107170;28;20513;-74
2022/08/06 01:11:12;;;;;;;11.85;7.50;;;;;;;22.52;55.82;98330.63;5108718;28;20027;-74
2022/08/06 01:13:37;;;;;;;8.18;6.90;;;;;;;22.47;56.50;98322.56;5109345;28;20020;-74
2022/08/06 01:16:10;;;;;;;9.85;6.47;;;;;;;22.36;56.15;98335.56;5109085;28;20043;-74
2022/08/06 01:18:45;;;;;;;10.40;6.90;;;;;;;22.28;56.55;98332.66;5106445;28;20498;-74
2022/08/06 01:21:34;;;;;;;8.43;6.43;;;;;;;22.21;56.31;98335.34;5112367;28;20019;-74
2022/08/06 01:24:23;;;;;;;9.63;6.35;;;;;;;22.18;56.64;98330.53;5113827;28;20023;-73
2022/08/06 01:27:26;;;;;;;7.72;6.53;;;;;;;22.11;57.20;98334.03;5113286;28;20034;-74
2022/08/06 01:29:57;;;;;;;6.30;5.70;;;;;;;22.06;57.17;98337.13;5112911;28;20031;-74
2022/08/06 01:32:30;;;;;;;7.65;6.10;;;;;;;22.01;56.92;98352.25;5113088;28;20031;-74
2022/08/06 01:35:03;;;;;;;6.95;6.20;;;;;;;21.98;57.03;98350.19;5113663;28;20499;-73
2022/08/06 01:37:41;;;;;;;8.05;6.10;;;;;;;21.95;57.04;98347.38;5085964;28;20040;-74
2022/08/06 01:40:13;;;;;;;6.70;6.00;;;;;;;21.93;57.63;98349.72;5072400;28;20032;-74
2022/08/06 01:42:40;;;;;;;8.02;5.90;;;;;;;21.90;57.75;98351.25;5070891;28;20031;-74
2022/08/06 01:45:11;;;;;;;6.80;6.03;;;;;;;21.88;58.11;98353.63;5076365;28;20127;-73
2022/08/06 01:47:39;;;;;;;7.80;5.95;;;;;;;21.84;57.93;98356.38;5084373;28;20031;-73
2022/08/06 01:50:07;;;;;;;6.97;5.70;;;;;;;21.82;58.26;98355.13;5071925;28;20029;-73
2022/08/06 01:52:36;;;;;;;6.55;5.70;;;;;;;21.79;57.76;98362.25;5072235;28;20028;-73
2022/08/06 01:55:05;;;;;;;8.33;5.67;;;;;;;21.80;58.05;98357.50;5072398;28;20025;-73
2022/08/06 01:57:34;;;;;;;7.82;5.60;;;;;;;21.78;58.14;98357.06;5072117;28;20374;-73
2022/08/06 02:00:01;;;;;;;7.88;5.80;;;;;;;21.77;57.68;98356.25;5072063;28;21332;-74
2022/08/06 02:02:28;;;;;;;7.07;5.25;;;;;;;21.76;57.76;98354.63;5071589;28;20465;-74
2022/08/06 02:04:57;;;;;;;6.03;5.22;;;;;;;21.76;58.29;98368.59;5071818;28;20036;-73
2022/08/06 02:07:26;;;;;;;6.88;5.45;;;;;;;21.74;58.52;98368.16;5071735;28;20022;-74
2022/08/06 02:09:54;;;;;;;6.07;5.32;;;;;;;21.72;58.56;98364.94;5087202;28;20028;-74
2022/08/06 02:12:24;;;;;;;6.55;5.05;;;;;;;21.71;58.38;98372.50;5092705;28;20101;-74
2022/08/06 02:14:57;;;;;;;5.72;4.82;;;;;;;21.69;57.95;98363.72;5085627;28;20032;-74
2022/08/06 02:17:29;;;;;;;5.30;4.75;;;;;;;21.71;58.68;98366.13;5072929;28;20024;-74
2022/08/06 02:20:00;;;;;;;5.50;5.00;;;;;;;21.67;58.09;98365.25;5073341;28;20059;-73
2022/08/06 02:22:28;;;;;;;6.88;4.60;;;;;;;21.66;58.53;98370.03;5072477;28;20530;-73
2022/08/06 02:24:55;;;;;;;6.50;4.80;;;;;;;21.66;58.71;98372.00;5073226;28;20028;-73
2022/08/06 02:27:23;;;;;;;5.78;4.82;;;;;;;21.64;58.37;98372.41;5072873;28;20032;-73
2022/08/06 02:29:51;;;;;;;7.45;5.35;;;;;;;21.64;59.00;98369.59;5073353;28;20021;-73
2022/08/06 02:32:17;;;;;;;6.10;4.85;;;;;;;21.62;58.67;98371.13;5072909;28;20051;-73
2022/08/06 02:34:43;;;;;;;6.10;4.72;;;;;;;21.61;58.50;98377.88;5072705;28;20032;-73
2022/08/06 02:37:22;;;;;;;7.55;4.80;;;;;;;21.63;58.49;98381.13;5077081;28;20059;-74
2022/08/06 02:40:01;;;;;;;5.82;4.40;;;;;;;21.61;59.06;98381.47;5112946;28;20028;-74
2022/08/06 02:42:36;;;;;;;4.90;4.50;;;;;;;21.62;58.63;98385.91;5112139;28;20019;-74
2022/08/06 02:45:07;;;;;;;5.03;4.53;;;;;;;21.62;59.13;98396.25;5113561;28;20031;-74
2022/08/06 02:47:35;;;;;;;6.03;4.70;;;;;;;21.62;59.19;98394.28;5112780;28;20299;-74
2022/08/06 02:50:02;;;;;;;6.20;5.07;;;;;;;21.62;58.94;98394.28;5113078;28;20015;-74
2022/08/06 02:52:42;;;;;;;6.30;4.80;;;;;;;21.64;59.60;98394.72;5112984;28;20031;-73
2022/08/06 02:55:28;;;;;;;5.68;4.43;;;;;;;21.63;59.73;98401.47;5113279;28;20076;-73
2022/08/06 02:58:07;;;;;;;5.80;4.68;;;;;;;21.63;59.37;98406.22;5112466;28;20023;-73
2022/08/06 03:00:36;;;;;;;6.32;4.43;;;;;;;21.63;59.71;98404.28;5113061;28;20115;-73
2022/08/06 03:03:07;;;;;;;4.47;4.07;;;;;;;21.62;59.85;98408.22;5094302;28;20449;-73
2022/08/06 03:05:33;;;;;;;4.70;4.20;;;;;;;21.62;59.98;98416.59;5112973;28;20106;-73
2022/08/06 03:08:00;;;;;;;5.57;4.90;;;;;;;21.61;60.44;98409.38;5112103;28;20031;-73
2022/08/06 03:10:28;;;;;;;6.53;5.50;;;;;;;21.59;60.73;98411.75;5112950;28;20053;-73
2022/08/06 03:12:55;;;;;;;5.43;4.45;;;;;;;21.59;60.26;98422.09;5112686;28;20027;-73
2022/08/06 03:15:24;;;;;;;5.30;4.80;;;;;;;21.61;60.20;98434.50;5113137;28;20034;-74
2022/08/06 03:17:51;;;;;;;5.75;4.90;;;;;;;21.63;60.24;98436.94;5112014;28;20431;-73
2022/08/06 03:20:20;;;;;;;5.28;4.78;;;;;;;21.65;60.31;98440.97;5112797;28;20027;-73
2022/08/06 03:22:50;;;;;;;5.68;4.60;;;;;;;21.65;60.50;98445.75;5112741;28;20038;-74
2022/08/06 03:25:17;;;;;;;5.28;4.78;;;;;;;21.63;61.20;98440.56;5112156;28;20063;-73
2022/08/06 03:27:47;;;;;;;7.43;4.88;;;;;;;21.62;61.22;98452.88;5111875;28;20051;-73
2022/08/06 03:30:13;;;;;;;;;;;;;;;21.60;60.95;98457.22;5112349;28;20429;-73
2022/08/06 03:32:39;;;;;;;5.63;4.85;;;;;;;21.58;61.21;98453.97;5112440;28;19916;-73
2022/08/06 03:35:06;;;;;;;5.20;4.70;;;;;;;21.59;62.21;98464.75;5112128;28;20058;-73
2022/08/06 03:37:33;;;;;;;6.30;4.50;;;;;;;21.55;61.66;98469.47;5111873;28;20055;-74
2022/08/06 03:40:00;;;;;;;5.07;4.57;;;;;;;21.54;62.27;98470.63;5112418;28;20023;-73
2022/08/06 03:42:26;;;;;;;5.65;5.05;;;;;;;21.54;62.06;98476.22;5111533;28;20019;-73
2022/08/06 03:44:51;;;;;;;5.32;4.50;;;;;;;21.54;62.36;98479.84;5112045;28;20615;-73
2022/08/06 03:47:31;;;;;;;8.18;4.80;;;;;;;21.53;62.96;98482.97;5111886;28;20043;-74
2022/08/06 03:50:05;;;;;;;5.22;4.63;;;;;;;21.53;63.29;98494.97;5093690;28;20057;-74
2022/08/06 03:52:34;;;;;;;5.72;4.68;;;;;;;21.50;62.72;98494.88;5112116;28;20024;-73
2022/08/06 03:55:03;;;;;;;6.32;5.13;;;;;;;21.50;63.22;98500.44;5111983;28;20388;-73
2022/08/06 03:57:38;;;;;;;6.43;4.78;;;;;;;21.50;63.18;98506.84;5111552;28;20015;-74
2022/08/06 04:00:06;;;;;;;5.57;4.45;;;;;;;21.52;63.65;98512.06;5111319;28;20062;-73
2022/08/06 04:02:37;;;;;;;6.63;4.68;;;;;;;21.53;63.47;98522.88;5111666;28;20423;-73
2022/08/06 04:05:03;;;;;;;6.68;4.95;;;;;;;21.53;63.36;98522.88;5111648;28;20034;-73
2022/08/06 04:07:30;;;;;;;7.25;5.43;;;;;;;21.54;63.58;98524.47;5092826;28;20062;-73
2022/08/06 04:09:56;;;;;;;6.18;5.07;;;;;;;21.54;64.16;98527.28;5111341;28;20027;-73
2022/08/06 04:12:23;;;;;;;7.15;5.25;;;;;;;21.52;64.30;98528.78;5111405;28;20171;-73
2022/08/06 04:14:49;;;;;;;6.38;5.28;;;;;;;21.52;64.53;98545.53;5111593;28;20420;-73
2022/08/06 04:17:16;;;;;;;6.18;5.43;;;;;;;21.52;64.93;98548.31;5111027;28;20111;-72
2022/08/06 04:19:44;;;;;;;4.82;4.32;;;;;;;21.53;65.26;98552.72;5110862;28;20063;-73
2022/08/06 04:22:10;;;;;;;6.63;5.40;;;;;;;21.50;65.00;98557.06;5111396;28;20062;-72
2022/08/06 04:24:35;;;;;;;5.32;4.82;;;;;;;21.52;65.15;98549.16;5112159;28;20066;-73
2022/08/06 04:27:04;;;;;;;5.68;4.82;;;;;;;21.53;64.79;98555.53;5110622;28;20437;-73
2022/08/06 04:29:32;;;;;;;5.95;4.97;;;;;;;21.57;64.54;98559.19;5108665;28;20038;-72
2022/08/06 04:31:59;;;;;;;5.85;5.20;;;;;;;21.61;64.29;98564.84;5111154;28;20044;-73
2022/08/06 04:34:27;;;;;;;8.88;5.22;;;;;;;21.65;64.72;98569.38;5109939;28;20122;-73
2022/08/06 04:36:53;;;;;;;5.40;4.50;;;;;;;21.70;64.17;98579.41;5110556;28;20023;-73
2022/08/06 04:39:21;;;;;;;6.55;5.03;;;;;;;21.78;64.62;98591.53;5110708;28;20479;-73
2022/08/06 04:41:47;;;;;;;6.75;5.38;;;;;;;21.82;64.33;98603.56;5111605;28;20023;-74
2022/08/06 04:44:13;;;;;;;5.53;4.90;;;;;;;21.90;64.51;98615.69;5111721;28;20017;-73
2022/08/06 04:46:39;;;;;;;5.18;4.70;;;;;;;21.96;64.66;98626.19;5110529;28;20039;-73
2022/08/06 04:49:05;;;;;;;6.47;4.80;;;;;;;21.98;64.76;98626.63;5109930;28;20034;-74
2022/08/06 04:51:30;;;;;;;7.15;4.80;;;;;;;22.04;64.66;98634.72;5111181;28;20028;-73
2022/08/06 04:53:56;;;;;;;5.05;4.53;;;;;;;22.10;64.75;98645.22;5110327;28;20028;-73
2022/08/06 04:56:21;;;;;;;6.18;4.90;;;;;;;22.13;64.55;98646.47;5110796;28;20039;-72
2022/08/06 04:58:47;;;;;;;6.47;5.00;;;;;;;22.20;63.87;98652.19;5109186;28;20040;-73
2022/08/06 05:01:13;;;;;;;5.03;4.55;;;;;;;22.26;63.70;98659.06;5110660;28;20031;-73
2022/08/06 05:03:38;;;;;;;7.57;4.60;;;;;;;22.35;64.29;98670.03;5110512;28;20020;-72
2022/08/06 05:06:19;;;;;;;4.85;4.30;;;;;;;22.34;64.10;98671.22;5110996;28;20393;-72
2022/08/06 05:08:49;;;;;;;5.07;4.57;;;;;;;22.31;63.63;98686.72;5110208;28;20147;-73
2022/08/06 05:11:23;;;;;;;5.63;4.63;;;;;;;22.31;63.81;98688.72;5110706;28;20023;-73
2022/08/06 05:13:54;;;;;;;4.93;4.38;;;;;;;22.32;63.63;98698.72;5111159;28;20446;-73
2022/08/06 05:16:21;;;;;;;6.10;5.00;;;;;;;22.34;63.83;98701.94;5110534;28;20042;-73
2022/08/06 05:18:54;;;;;;;7.28;4.22;;;;;;;22.35;64.64;98711.94;5109850;28;20539;-74
2022/08/06 05:21:25;;;;;;;6.10;4.47;;;;;;;22.23;64.60;98715.69;5110563;28;20026;-74
2022/08/06 05:23:55;;;;;;;7.68;5.20;;;;;;;22.17;64.72;98725.56;5110895;28;20036;-73
2022/08/06 05:26:22;;;;;;;6.65;4.88;;;;;;;22.06;65.50;98733.69;5110399;28;20019;-74
2022/08/06 05:28:47;;;;;;;5.32;4.40;;;;;;;21.94;65.81;98742.22;5110123;28;20039;-74
2022/08/06 05:31:13;;;;;;;5.38;4.43;;;;;;;21.88;66.23;98754.84;5092179;28;20045;-73
2022/08/06 05:33:39;;;;;;;5.22;4.30;;;;;;;21.81;67.32;98756.31;5110558;28;20031;-73
2022/08/06 05:36:12;;;;;;;5.53;4.70;;;;;;;21.71;67.94;98754.09;5111144;28;20051;-74
2022/08/06 05:38:39;;;;;;;4.88;4.47;;;;;;;21.65;67.68;98761.13;5110014;28;21238;-74
2022/08/06 05:41:07;;;;;;;6.20;4.65;;;;;;;21.61;68.35;98758.22;5110647;28;20681;-73
2022/08/06 05:43:33;;;;;;;5.20;4.40;;;;;;;21.59;67.29;98757.78;5110715;28;20031;-73
2022/08/06 05:46:04;;;;;;;5.55;4.50;;;;;;;21.62;67.35;98765.47;5110956;28;20023;-74
2022/08/06 05:48:32;;;;;;;4.97;4.40;;;;;;;21.65;67.56;98767.53;5109865;28;20027;-73
2022/08/06 05:51:04;;;;;;;10.07;4.05;;;;;;;21.64;68.39;98765.09;5110310;28;20088;-73
2022/08/06 05:53:53;;;;;;;4.85;4.30;;;;;;;21.65;67.76;98761.13;5092280;28;20046;-74
2022/08/06 05:56:29;;;;;;;5.13;4.63;;;;;;;21.65;67.84;98775.06;5092062;28;20061;-74
2022/08/06 05:58:59;;;;;;;5.45;4.28;;;;;;;21.64;67.73;98773.44;5109783;28;20034;-73
2022/08/06 06:01:25;;;;;;;4.60;4.20;;;;;;;21.63;68.28;98783.81;5110522;28;20028;-74
2022/08/06 06:03:53;;;;;;;5.32;4.07;;;;;;;21.54;68.58;98783.16;5110806;28;20038;-73
2022/08/06 06:06:21;;;;;;;6.35;5.38;;;;;;;21.52;70.03;98779.94;5111732;28;20042;-73
2022/08/06 06:08:48;;;;;;;43.53;28.67;;;;;;;21.38;69.35;98789.59;5114114;28;20515;-73
2022/08/06 06:11:14;;;;;;;23.98;18.25;;;;;;;21.36;69.85;98800.31;5114311;28;20035;-73
2022/08/06 06:13:41;;;;;;;10.15;8.75;;;;;;;21.31;70.06;98802.53;5114019;28;20119;-73
2022/08/06 06:16:26;;;;;;;24.00;16.42;;;;;;;21.24;69.71;98812.34;5114125;28;20078;-74
2022/08/06 06:19:18;;;;;;;6.50;5.75;;;;;;;21.22;70.36;98820.25;5113304;28;20088;-73
2022/08/06 06:22:04;;;;;;;7.45;6.57;;;;;;;21.18;70.83;98812.97;5101224;28;20067;-73
2022/08/06 06:24:40;;;;;;;26.50;20.95;;;;;;;21.15;70.65;98824.84;5113893;28;20107;-74
2022/08/06 06:27:28;;;;;;;15.57;11.95;;;;;;;21.07;72.29;98843.38;5114319;28;20411;-73
2022/08/06 06:30:04;;;;;;;3.65;3.35;;;;;;;20.99;71.91;98859.09;5112993;28;20059;-74
2022/08/06 06:32:38;;;;;;;1.52;1.38;;;;;;;20.76;71.64;98864.41;5113952;28;20039;-74
2022/08/06 06:35:04;;;;;;;2.17;1.00;;;;;;;20.34;70.81;98873.94;5113246;28;20411;-74
2022/08/06 06:37:41;;;;;;;1.00;0.70;;;;;;;19.86;71.66;98888.34;5095397;28;20048;-74
2022/08/06 06:40:19;;;;;;;0.82;0.40;;;;;;;19.53;73.14;98889.25;5111540;27;20131;-73
2022/08/06 06:43:11;;;;;;;3.65;0.82;;;;;;;19.03;74.07;98882.78;5112279;28;20430;-76
2022/08/06 06:45:48;;;;;;;15.13;5.60;;;;;;;18.52;75.21;98888.47;5058062;28;20086;-72
2022/08/06 06:48:23;;;;;;;5.07;1.55;;;;;;;18.09;77.54;98876.50;5111227;28;20081;-78
2022/08/06 06:50:53;;;;;;;3.20;0.98;;;;;;;17.85;80.53;98878.72;5111950;28;20031;-75
2022/08/06 06:53:20;;;;;;;3.50;0.68;;;;;;;17.59;79.71;98881.63;5093449;27;20504;-75
2022/08/06 06:55:53;;;;;;;2.85;0.60;;;;;;;17.45;83.57;98872.72;5116244;27;20031;-76
2022/08/06 06:58:40;;;;;;;1.67;0.70;;;;;;;17.30;83.31;98891.53;5111558;28;20028;-74
2022/08/06 07:01:10;;;;;;;1.90;0.75;;;;;;;17.21;82.84;98888.78;5110873;28;20021;-74
2022/08/06 07:03:39;;;;;;;1.65;0.73;;;;;;;17.17;83.75;98900.84;5112223;28;20044;-75
2022/08/06 07:06:08;;;;;;;2.72;1.30;;;;;;;17.10;84.01;98904.13;5093764;28;20030;-77
2022/08/06 07:08:37;;;;;;;4.23;1.70;;;;;;;17.09;85.82;98905.25;5109926;28;20012;-75
2022/08/06 07:11:05;;;;;;;2.75;1.63;;;;;;;17.07;84.86;98905.59;5111584;28;20414;-74
2022/08/06 07:13:32;;;;;;;1.33;0.90;;;;;;;17.06;85.20;98911.47;5113145;27;20019;-74
2022/08/06 07:15:59;;;;;;;2.40;0.80;;;;;;;17.05;84.82;98912.59;5113365;27;20016;-74
2022/08/06 07:18:26;;;;;;;1.75;0.80;;;;;;;17.01;84.79;98923.53;5111577;27;20023;-74
2022/08/06 07:20:52;;;;;;;3.17;1.10;;;;;;;17.00;85.28;98924.69;5115840;27;20496;-76
2022/08/06 07:23:20;;;;;;;2.22;0.82;;;;;;;16.99;84.62;98927.75;5098386;27;20139;-75
2022/08/06 07:25:48;;;;;;;0.63;0.63;;;;;;;16.94;86.70;98932.28;5112705;27;20468;-75
2022/08/06 07:28:15;;;;;;;1.30;0.80;;;;;;;16.87;87.39;98942.25;5114071;27;20066;-75
2022/08/06 07:30:42;;;;;;;2.00;0.77;;;;;;;16.82;86.17;98940.47;5112004;27;20477;-75
2022/08/06 07:33:10;;;;;;;1.05;0.68;;;;;;;16.80;88.48;98942.75;5113790;27;20484;-74
2022/08/06 07:35:40;;;;;;;3.22;1.15;;;;;;;16.77;87.37;98949.75;5112012;27;20364;-75
2022/08/06 07:38:08;;;;;;;1.88;0.90;;;;;;;16.75;87.91;98951.22;5111525;27;20511;-75
2022/08/06 07:40:41;;;;;;;0.98;0.60;;;;;;;16.71;87.58;98959.34;5111597;28;20479;-74
2022/08/06 07:43:17;;;;;;;1.88;1.27;;;;;;;16.73;87.43;98956.28;5113507;27;20032;-75
2022/08/06 07:45:44;;;;;;;1.45;0.93;;;;;;;16.71;88.31;98966.84;5092385;28;20019;-74
2022/08/06 07:48:12;;;;;;;1.42;0.98;;;;;;;16.72;88.50;98968.47;5110769;28;20047;-74
2022/08/06 07:50:39;;;;;;;2.20;1.40;;;;;;;16.71;87.81;98964.88;5093289;28;20032;-75
2022/08/06 07:53:06;;;;;;;1.00;0.80;;;;;;;16.69;87.50;98969.97;5111321;28;20031;-75
2022/08/06 07:55:32;;;;;;;2.22;1.25;;;;;;;16.70;88.27;98971.59;5111407;27;20075;-74
2022/08/06 07:58:00;;;;;;;1.65;1.20;;;;;;;16.63;88.79;98962.94;5110334;28;20023;-74
2022/08/06 08:00:27;;;;;;;1.52;1.20;;;;;;;16.62;88.34;98964.88;5110607;28;20019;-74
2022/08/06 08:08:24;;;;;;;2.28;1.20;;;;;;;16.58;88.33;98974.97;5111799;28;20568;-73
2022/08/06 08:10:52;;;;;;;1.40;1.25;;;;;;;16.63;89.29;98974.03;5108315;28;20690;-74
2022/08/06 08:13:18;;;;;;;1.52;1.08;;;;;;;16.62;89.13;98973.19;5111064;28;20053;-74
2022/08/06 08:15:46;;;;;;;1.45;1.10;;;;;;;16.63;89.59;98971.25;5111558;28;20093;-74
2022/08/06 08:18:11;;;;;;;1.85;1.40;;;;;;;16.73;91.61;98965.38;5111100;28;20027;-73
2022/08/06 08:20:39;;;;;;;2.03;1.30;;;;;;;16.67;89.96;98972.25;5111133;28;20482;-74
2022/08/06 08:23:06;;;;;;;1.95;1.10;;;;;;;16.71;89.77;98966.84;5111025;28;20027;-74
2022/08/06 08:25:33;;;;;;;1.13;1.02;;;;;;;16.80;88.89;98976.78;5109605;27;20039;-73
2022/08/06 08:27:59;;;;;;;2.15;1.40;;;;;;;16.86;89.71;98979.41;5110803;27;20024;-74
2022/08/06 08:30:24;;;;;;;1.50;0.98;;;;;;;16.90;89.68;98978.44;5110505;28;20031;-73
2022/08/06 08:32:50;;;;;;;1.67;0.90;;;;;;;16.89;90.05;98978.75;5111146;28;20023;-74
2022/08/06 08:35:15;;;;;;;2.10;1.00;;;;;;;16.92;90.39;98990.00;5111018;28;20027;-74
2022/08/06 08:37:41;;;;;;;3.03;1.10;;;;;;;16.93;89.35;98993.59;5110456;28;20035;-73
2022/08/06 08:40:07;;;;;;;1.02;0.80;;;;;;;16.99;90.37;98995.09;5110032;28;20072;-74
2022/08/06 08:42:39;;;;;;;1.20;1.02;;;;;;;17.08;88.86;98998.69;5110451;28;20022;-74
2022/08/06 08:45:05;;;;;;;1.88;1.00;;;;;;;17.20;89.29;98999.97;5110130;28;20016;-76
2022/08/06 08:47:33;;;;;;;2.90;1.20;;;;;;;17.29;88.97;99005.50;5109419;27;20063;-75
2022/08/06 08:50:02;;;;;;;3.55;1.35;;;;;;;17.38;88.05;99009.06;5108400;28;20039;-75
2022/08/06 08:52:32;;;;;;;1.58;0.90;;;;;;;17.48;90.06;99008.72;5110078;28;20035;-76
2022/08/06 08:55:07;;;;;;;2.45;1.10;;;;;;;17.43;88.39;99013.66;5110579;28;20024;-75
2022/08/06 08:57:33;;;;;;;1.42;0.85;;;;;;;17.41;89.44;99012.03;5108538;27;20108;-75
2022/08/06 09:00:01;;;;;;;1.65;0.90;;;;;;;17.40;88.03;99026.19;5109991;28;20084;-75
2022/08/06 09:02:27;;;;;;;1.40;1.02;;;;;;;17.48;87.65;99019.81;5110579;28;20027;-75
2022/08/06 09:04:53;;;;;;;0.95;0.60;;;;;;;17.51;89.45;99029.47;5109942;28;20479;-76
2022/08/06 09:07:20;;;;;;;1.73;0.63;;;;;;;17.46;87.82;99032.41;5109785;28;20046;-75
2022/08/06 09:09:45;;;;;;;1.17;0.80;;;;;;;17.46;88.75;99041.53;5110354;28;20483;-74
2022/08/06 09:12:11;;;;;;;1.77;0.88;;;;;;;17.38;87.39;99043.16;5109528;28;20039;-75
2022/08/06 09:14:37;;;;;;;2.35;1.10;;;;;;;17.37;88.04;99043.47;5110157;28;20380;-75
2022/08/06 09:17:05;;;;;;;2.47;1.08;;;;;;;17.33;87.84;99059.13;5108627;28;20027;-74
2022/08/06 09:19:31;;;;;;;1.67;0.90;;;;;;;17.30;87.12;99060.63;5110366;28;20058;-75
2022/08/06 09:21:58;;;;;;;3.53;1.10;;;;;;;17.30;87.45;99052.31;5110472;28;20055;-74
2022/08/06 09:24:24;;;;;;;1.23;0.90;;;;;;;17.31;87.57;99061.44;5110432;28;20027;-75
2022/08/06 09:27:16;;;;;;;0.80;0.70;;;;;;;17.25;87.50;99069.09;5109038;28;20483;-74
2022/08/06 09:29:51;;;;;;;1.33;1.10;;;;;;;17.21;87.29;99077.25;5088834;28;20034;-76
2022/08/06 09:32:39;;;;;;;1.35;0.80;;;;;;;17.18;88.45;99079.84;5109272;28;20038;-75
2022/08/06 09:35:23;;;;;;;0.75;0.75;;;;;;;17.06;87.49;99075.78;5108905;28;20548;-75
2022/08/06 09:37:50;;;;;;;1.50;0.73;;;;;;;17.08;87.49;99087.38;5109734;28;20039;-75
2022/08/06 09:40:18;;;;;;;1.05;0.90;;;;;;;17.16;86.97;99090.44;5108547;28;20028;-76
2022/08/06 09:42:48;;;;;;;1.00;0.90;;;;;;;17.22;86.87;99086.38;5113795;28;20059;-76
2022/08/06 09:45:15;;;;;;;1.75;0.90;;;;;;;17.27;87.34;99100.06;5112808;28;20468;-75
2022/08/06 09:47:42;;;;;;;0.73;0.73;;;;;;;17.30;87.81;99090.31;5109702;28;20035;-75
2022/08/06 09:50:08;;;;;;;0.98;0.90;;;;;;;17.22;86.86;99095.53;5113552;28;20032;-76
2022/08/06 09:52:34;;;;;;;1.05;0.80;;;;;;;17.28;86.96;99085.06;5111801;28;20027;-75
2022/08/06 09:54:59;;;;;;;0.80;0.80;;;;;;;17.32;86.75;99090.81;5110162;28;20503;-76
2022/08/06 09:57:39;;;;;;;1.38;0.90;;;;;;;17.29;86.54;99094.22;5113794;28;20023;-76
2022/08/06 10:00:06;;;;;;;1.20;1.10;;;;;;;17.26;86.26;99102.03;5112888;27;20026;-76
2022/08/06 10:02:33;;;;;;;1.95;1.13;;;;;;;17.25;87.21;99105.97;5115330;27;20583;-75
2022/08/06 10:05:09;;;;;;;1.90;1.20;;;;;;;17.18;86.54;99110.34;5113398;28;20026;-76
2022/08/06 10:07:34;;;;;;;1.65;1.30;;;;;;;17.17;86.20;99117.84;5111918;28;20475;-75
2022/08/06 10:10:00;;;;;;;1.60;1.00;;;;;;;17.15;86.55;99128.44;5113117;28;20023;-73
2022/08/06 10:12:25;;;;;;;1.58;1.10;;;;;;;17.05;87.17;99120.44;5111778;28;20119;-74
2022/08/06 10:14:51;;;;;;;1.40;1.30;;;;;;;16.93;86.48;99126.56;5112665;28;20020;-74
2022/08/06 10:17:19;;;;;;;1.55;1.30;;;;;;;16.83;86.37;99141.56;5111709;28;20110;-74
2022/08/06 10:19:47;;;;;;;1.60;1.50;;;;;;;16.73;86.08;99139.88;5112574;28;20024;-74
2022/08/06 10:22:15;;;;;;;1.40;1.30;;;;;;;16.65;86.45;99135.94;5113091;28;20022;-74
2022/08/06 10:24:46;;;;;;;2.38;1.60;;;;;;;16.56;86.40;99137.06;5112660;28;20036;-73
2022/08/06 10:27:37;;;;;;;1.80;1.58;;;;;;;16.51;86.99;99144.38;5113541;27;20028;-73
2022/08/06 10:30:08;;;;;;;2.25;1.63;;;;;;;16.48;87.17;99144.19;5095332;28;20480;-74
2022/08/06 10:32:40;;;;;;;2.08;1.70;;;;;;;16.41;86.60;99149.38;5112307;27;20034;-72
2022/08/06 10:35:06;;;;;;;1.92;1.73;;;;;;;16.36;86.30;99156.69;5111888;28;20024;-72
2022/08/06 10:37:36;;;;;;;2.08;1.73;;;;;;;16.33;86.21;99148.16;5111797;27;20044;-72
2022/08/06 10:40:03;;;;;;;1.67;1.58;;;;;;;16.30;86.99;99157.94;5113544;27;20023;-73
2022/08/06 10:42:29;;;;;;;2.78;1.90;;;;;;;16.20;86.53;99152.66;5112460;28;20036;-73
2022/08/06 10:44:56;;;;;;;3.13;2.00;;;;;;;16.17;86.30;99147.75;5113000;28;20028;-73
2022/08/06 10:47:23;;;;;;;2.08;1.88;;;;;;;16.17;87.44;99154.13;5113668;27;20028;-72
2022/08/06 10:49:49;;;;;;;2.20;2.00;;;;;;;16.14;86.82;99159.47;5110623;28;20034;-73
2022/08/06 10:52:15;;;;;;;1.95;1.85;;;;;;;16.09;86.82;99151.31;5111707;28;20107;-74
2022/08/06 10:54:41;;;;;;;3.05;2.30;;;;;;;16.06;87.03;99152.75;5094542;27;20119;-73
2022/08/06 10:57:08;;;;;;;2.25;2.05;;;;;;;16.01;87.29;99162.00;5109533;27;20106;-74
2022/08/06 10:59:34;;;;;;;2.55;2.35;;;;;;;15.98;87.60;99168.16;5112574;27;20426;-75
2022/08/06 11:02:30;;;;;;;2.25;1.85;;;;;;;15.90;86.43;99161.44;5111716;28;20080;-77
2022/08/06 11:05:01;;;;;;;2.60;2.33;;;;;;;15.91;86.51;99165.03;5106311;28;20063;-75
2022/08/06 11:07:45;;;;;;;2.70;2.50;;;;;;;15.91;87.31;99174.13;5111583;28;20027;-74
2022/08/06 11:10:32;;;;;;;2.80;2.50;;;;;;;15.93;87.11;99166.34;5109559;28;20081;-75
2022/08/06 11:13:29;;;;;;;3.10;2.80;;;;;;;15.93;87.95;99168.28;5111440;28;20088;-78
2022/08/06 11:15:54;;;;;;;2.50;2.30;;;;;;;15.91;87.18;99167.78;5105483;27;20045;-76
2022/08/06 11:18:21;;;;;;;3.20;2.60;;;;;;;15.95;87.04;99174.34;5093222;28;20020;-76
2022/08/06 11:20:52;;;;;;;3.72;2.88;;;;;;;15.97;86.84;99176.78;5110832;27;20036;-75
2022/08/06 11:23:17;;;;;;;3.35;3.05;;;;;;;15.99;87.83;99175.34;5113035;28;20108;-74
2022/08/06 11:25:52;;;;;;;3.95;3.08;;;;;;;16.00;86.95;99168.69;5112057;28;20717;-75
2022/08/06 11:28:27;;;;;;;3.95;3.47;;;;;;;16.04;87.24;99175.22;5112709;28;20106;-75
2022/08/06 11:30:55;;;;;;;3.80;3.38;;;;;;;16.07;87.36;99171.00;5112906;28;20116;-75
2022/08/06 11:33:41;;;;;;;5.07;3.95;;;;;;;16.02;86.78;99171.94;5112901;28;20023;-75
2022/08/06 11:36:12;;;;;;;5.80;5.10;;;;;;;16.05;86.57;99174.09;5112492;28;20016;-74
2022/08/06 11:38:46;;;;;;;4.60;4.15;;;;;;;16.06;87.57;99169.34;5109820;27;20070;-72
2022/08/06 11:41:28;;;;;;;5.88;5.22;;;;;;;16.05;86.58;99167.72;5113522;27;20042;-73
2022/08/06 11:43:56;;;;;;;6.97;5.93;;;;;;;16.12;86.86;99170.03;5109452;28;20124;-74
2022/08/06 11:46:29;;;;;;;6.75;4.85;;;;;;;16.14;87.01;99176.91;5091395;28;20418;-76
2022/08/06 11:49:04;;;;;;;7.20;6.22;;;;;;;16.13;86.20;99168.91;5110457;28;20032;-73